createdAt,value
2022-12-18T00:02:13.518Z,-7.43
2022-12-18T00:04:40.554Z,-7.45
2022-12-18T00:07:07.426Z,-7.43
2022-12-18T00:09:40.074Z,-7.36
2022-12-18T00:14:45.626Z,-7.50
2022-12-18T00:17:12.910Z,-7.30
2022-12-18T00:19:39.373Z,-7.28
2022-12-18T00:22:07.212Z,-7.39
2022-12-18T00:24:34.059Z,-7.38
2022-12-18T00:27:00.548Z,-7.55
2022-12-18T00:29:27.050Z,-7.40
2022-12-18T00:31:54.168Z,-7.47
2022-12-18T00:34:20.552Z,-7.36
2022-12-18T00:36:48.637Z,-7.39
2022-12-18T00:39:15.172Z,-7.38
2022-12-18T00:42:03.664Z,-7.37
2022-12-18T00:44:31.086Z,-7.37
2022-12-18T00:46:57.779Z,-7.34
2022-12-18T00:49:24.850Z,-7.37
2022-12-18T00:51:51.598Z,-7.76
2022-12-18T00:54:18.863Z,-7.42
2022-12-18T00:56:49.470Z,-7.31
2022-12-18T00:59:17.844Z,-7.41
2022-12-18T01:01:45.734Z,-7.48
2022-12-18T01:04:12.591Z,-7.68
2022-12-18T01:06:39.345Z,-7.57
2022-12-18T01:09:06.924Z,-7.55
2022-12-18T01:11:36.395Z,-7.53
2022-12-18T01:14:05.138Z,-7.47
2022-12-18T01:16:31.787Z,-7.55
2022-12-18T01:18:58.265Z,-7.62
2022-12-18T01:21:27.269Z,-7.54
2022-12-18T01:23:55.845Z,-7.42
2022-12-18T01:26:24.356Z,-7.38
2022-12-18T01:29:11.281Z,-7.49
2022-12-18T01:31:57.754Z,-7.65
2022-12-18T01:34:44.699Z,-7.61
2022-12-18T01:37:31.106Z,-7.62
2022-12-18T01:40:18.056Z,-7.67
2022-12-18T01:43:04.609Z,-7.68
2022-12-18T01:45:33.048Z,-7.62
2022-12-18T01:48:07.197Z,-7.93
2022-12-18T01:50:40.603Z,-7.83
2022-12-18T01:53:12.333Z,-7.79
2022-12-18T01:55:43.944Z,-7.91
2022-12-18T01:58:11.253Z,-7.77
2022-12-18T02:00:37.733Z,-7.81
2022-12-18T02:03:04.298Z,-7.80
2022-12-18T02:06:01.838Z,-7.99
2022-12-18T02:08:38.769Z,-7.88
2022-12-18T02:11:13.281Z,-8.02
2022-12-18T02:14:05.170Z,-8.07
2022-12-18T02:16:53.108Z,-7.91
2022-12-18T02:20:02.550Z,-7.99
2022-12-18T02:22:29.733Z,-8.32
2022-12-18T02:25:29.293Z,-8.26
2022-12-18T02:27:59.032Z,-8.23
2022-12-18T02:30:28.280Z,-8.34
2022-12-18T02:32:56.810Z,-8.27
2022-12-18T02:35:26.949Z,-8.30
2022-12-18T02:37:56.467Z,-8.27
2022-12-18T02:40:26.911Z,-8.23
2022-12-18T02:42:53.388Z,-8.22
2022-12-18T02:45:20.972Z,-8.24
2022-12-18T02:47:50.733Z,-8.18
2022-12-18T02:50:39.374Z,-8.12
2022-12-18T02:53:37.696Z,-8.13
2022-12-18T02:56:16.895Z,-8.30
2022-12-18T02:59:07.121Z,-8.25
2022-12-18T03:01:52.845Z,-8.20
2022-12-18T03:04:29.909Z,-8.21
2022-12-18T03:07:01.081Z,-8.34
2022-12-18T03:09:39.088Z,-8.31
2022-12-18T03:12:25.944Z,-8.32
2022-12-18T03:15:17.491Z,-8.34
2022-12-18T03:18:00.240Z,-8.32
2022-12-18T03:20:32.173Z,-8.36
2022-12-18T03:23:10.468Z,-8.37
2022-12-18T03:25:41.661Z,-8.33
2022-12-18T03:28:13.537Z,-8.35
2022-12-18T03:30:43.257Z,-8.39
2022-12-18T03:33:20.752Z,-8.33
2022-12-18T03:35:50.196Z,-8.24
2022-12-18T03:38:18.381Z,-8.32
2022-12-18T03:40:54.938Z,-8.25
2022-12-18T03:43:36.533Z,-8.39
2022-12-18T03:46:09.631Z,-8.49
2022-12-18T03:48:44.629Z,-8.46
2022-12-18T03:51:37.830Z,-8.54
2022-12-18T03:54:07.953Z,-8.45
2022-12-18T03:56:48.246Z,-8.29
2022-12-18T03:59:17.831Z,-8.37
2022-12-18T04:01:48.605Z,-8.36
2022-12-18T04:04:19.098Z,-8.48
2022-12-18T04:06:48.867Z,-8.46
2022-12-18T04:09:17.510Z,-8.46
2022-12-18T04:11:48.216Z,-8.70
2022-12-18T04:14:18.319Z,-8.78
2022-12-18T04:16:49.253Z,-8.77
2022-12-18T04:19:18.207Z,-8.70
2022-12-18T04:21:47.880Z,-8.73
2022-12-18T04:24:14.952Z,-8.88
2022-12-18T04:26:50.724Z,-8.90
2022-12-18T04:29:22.218Z,-8.84
2022-12-18T04:31:49.395Z,-8.76
2022-12-18T04:34:16.610Z,-8.78
2022-12-18T04:36:49.045Z,-8.65
2022-12-18T04:39:19.663Z,-8.60
2022-12-18T04:41:48.652Z,-8.61
2022-12-18T04:44:15.584Z,-8.63
2022-12-18T04:46:43.688Z,-8.70
2022-12-18T04:49:11.559Z,-8.80
2022-12-18T04:51:38.615Z,-8.71
2022-12-18T04:54:05.232Z,-8.74
2022-12-18T04:56:32.968Z,-8.82
2022-12-18T04:58:59.800Z,-8.85
2022-12-18T05:01:32.545Z,-8.80
2022-12-18T05:04:02.123Z,-8.76
2022-12-18T05:06:28.647Z,-8.70
2022-12-18T05:08:55.489Z,-8.78
2022-12-18T05:11:22.470Z,-8.79
2022-12-18T05:13:50.259Z,-9.26
2022-12-18T05:16:17.022Z,-9.16
2022-12-18T05:18:44.212Z,-9.04
2022-12-18T05:21:10.922Z,-8.88
2022-12-18T05:23:38.157Z,-9.22
2022-12-18T05:26:07.040Z,-9.23
2022-12-18T05:28:35.165Z,-9.05
2022-12-18T05:31:04.052Z,-8.91
2022-12-18T05:33:33.118Z,-8.81
2022-12-18T05:36:06.386Z,-8.85
2022-12-18T05:38:35.017Z,-8.79
2022-12-18T05:41:01.611Z,-8.77
2022-12-18T05:43:29.385Z,-8.80
2022-12-18T05:45:59.446Z,-9.01
2022-12-18T05:48:26.244Z,-8.86
2022-12-18T05:50:53.286Z,-8.69
2022-12-18T05:53:21.190Z,-8.79
2022-12-18T05:55:48.963Z,-8.66
2022-12-18T05:58:16.344Z,-8.65
2022-12-18T06:00:46.440Z,-8.73
2022-12-18T06:03:14.291Z,-8.62
2022-12-18T06:05:45.757Z,-8.56
2022-12-18T06:08:13.522Z,-8.56
2022-12-18T06:10:40.495Z,-8.45
2022-12-18T06:13:07.860Z,-8.46
2022-12-18T06:15:38.230Z,-8.52
2022-12-18T06:18:04.802Z,-8.60
2022-12-18T06:20:33.684Z,-8.95
2022-12-18T06:23:00.829Z,-9.04
2022-12-18T06:25:27.481Z,-8.91
2022-12-18T06:27:55.024Z,-8.96
2022-12-18T06:30:21.723Z,-8.91
2022-12-18T06:32:54.658Z,-8.93
2022-12-18T06:35:22.655Z,-9.01
2022-12-18T06:37:49.609Z,-9.20
2022-12-18T06:40:16.415Z,-8.92
2022-12-18T06:42:43.090Z,-9.03
2022-12-18T06:45:10.160Z,-8.94
2022-12-18T06:47:36.944Z,-8.87
2022-12-18T06:50:03.791Z,-8.66
2022-12-18T06:52:32.833Z,-8.65
2022-12-18T06:54:59.806Z,-8.73
2022-12-18T06:57:26.261Z,-8.98
2022-12-18T06:59:53.126Z,-8.78
2022-12-18T07:02:19.787Z,-8.64
2022-12-18T07:04:46.516Z,-8.87
2022-12-18T07:07:12.969Z,-9.01
2022-12-18T07:09:39.809Z,-9.19
2022-12-18T07:12:08.161Z,-8.97
2022-12-18T07:14:35.129Z,-8.91
2022-12-18T07:17:01.886Z,-8.70
2022-12-18T07:19:28.644Z,-8.91
2022-12-18T07:21:56.422Z,-8.79
2022-12-18T07:24:22.815Z,-8.77
2022-12-18T07:26:49.449Z,-9.00
2022-12-18T07:29:16.114Z,-9.01
2022-12-18T07:31:43.055Z,-9.30
2022-12-18T07:34:14.106Z,-9.07
2022-12-18T07:36:40.583Z,-8.92
2022-12-18T07:39:07.056Z,-9.03
2022-12-18T07:41:34.173Z,-8.95
2022-12-18T07:44:11.640Z,-8.78
2022-12-18T07:46:38.607Z,-8.73
2022-12-18T07:49:05.505Z,-8.62
2022-12-18T07:51:32.238Z,-8.54
2022-12-18T07:53:58.709Z,-8.53
2022-12-18T07:56:28.297Z,-8.42
2022-12-18T07:58:55.508Z,-8.44
2022-12-18T08:01:22.456Z,-8.40
2022-12-18T08:03:49.040Z,-8.39
2022-12-18T08:06:18.906Z,-8.35
2022-12-18T08:08:45.297Z,-8.43
2022-12-18T08:11:11.718Z,-8.36
2022-12-18T08:13:38.594Z,-8.34
2022-12-18T08:16:07.836Z,-8.41
2022-12-18T08:18:36.514Z,-8.43
2022-12-18T08:21:10.492Z,-8.30
2022-12-18T08:23:42.292Z,-8.31
2022-12-18T08:26:10.381Z,-8.35
2022-12-18T08:28:37.205Z,-8.36
2022-12-18T08:31:03.902Z,-8.27
2022-12-18T08:33:30.438Z,-8.18
2022-12-18T08:35:56.890Z,-8.18
2022-12-18T08:38:24.155Z,-7.97
2022-12-18T08:40:50.610Z,-8.15
2022-12-18T08:43:35.779Z,-7.91
2022-12-18T08:46:02.705Z,-7.70
2022-12-18T08:48:29.168Z,-7.59
2022-12-18T08:51:00.146Z,-7.51
2022-12-18T08:53:30.359Z,-7.34
2022-12-18T08:56:01.064Z,-7.35
2022-12-18T08:58:27.477Z,-7.71
2022-12-18T09:00:54.236Z,-7.46
2022-12-18T09:03:23.406Z,-7.21
2022-12-18T09:05:49.964Z,-6.99
2022-12-18T09:08:16.769Z,-6.88
2022-12-18T09:10:45.279Z,-6.78
2022-12-18T09:13:12.958Z,-6.71
2022-12-18T09:15:43.766Z,-6.78
2022-12-18T09:18:10.455Z,-6.61
2022-12-18T09:20:38.156Z,-6.45
2022-12-18T09:23:05.449Z,-6.29
2022-12-18T09:25:36.645Z,-6.21
2022-12-18T09:28:07.578Z,-6.37
2022-12-18T09:30:35.093Z,-6.33
2022-12-18T09:33:02.473Z,-6.31
2022-12-18T09:35:28.920Z,-6.06
2022-12-18T09:37:55.954Z,-5.91
2022-12-18T09:40:25.730Z,-5.89
2022-12-18T09:42:58.313Z,-5.69
2022-12-18T09:45:25.087Z,-5.70
2022-12-18T09:47:55.505Z,-5.55
2022-12-18T09:50:31.341Z,-5.40
2022-12-18T09:53:03.755Z,-5.04
2022-12-18T09:55:43.071Z,-5.03
2022-12-18T09:58:10.536Z,-5.45
2022-12-18T10:00:37.598Z,-5.00
2022-12-18T10:03:15.705Z,-4.88
2022-12-18T10:06:05.432Z,-4.95
2022-12-18T10:08:40.799Z,-5.66
2022-12-18T10:11:35.586Z,-5.45
2022-12-18T10:14:20.408Z,-5.60
2022-12-18T10:17:03.777Z,-5.01
2022-12-18T10:19:52.608Z,-4.50
2022-12-18T10:22:34.580Z,-5.44
2022-12-18T10:25:10.971Z,-4.68
2022-12-18T10:27:37.365Z,-4.82
2022-12-18T10:30:21.762Z,-4.90
2022-12-18T10:32:48.629Z,-4.42
2022-12-18T10:35:27.669Z,-4.50
2022-12-18T10:38:01.512Z,-3.99
2022-12-18T10:40:28.643Z,-4.37
2022-12-18T10:43:15.522Z,-4.26
2022-12-18T10:45:43.087Z,-4.03
2022-12-18T10:48:23.064Z,-3.69
2022-12-18T10:53:42.629Z,-3.29
2022-12-18T10:56:10.015Z,-3.62
2022-12-18T10:58:38.888Z,-3.51
2022-12-18T11:01:09.954Z,-3.77
2022-12-18T11:04:02.394Z,-3.65
2022-12-18T11:06:29.679Z,-3.41
2022-12-18T11:09:07.856Z,-3.04
2022-12-18T11:11:38.188Z,-3.41
2022-12-18T11:14:07.614Z,-2.96
2022-12-18T11:16:57.864Z,-2.79
2022-12-18T11:19:41.817Z,-2.71
2022-12-18T11:22:41.381Z,-2.64
2022-12-18T11:25:32.997Z,-2.53
2022-12-18T11:28:03.851Z,-2.94
2022-12-18T11:30:33.493Z,-2.65
2022-12-18T11:33:32.416Z,-2.71
2022-12-18T11:36:04.592Z,-2.77
2022-12-18T11:38:35.571Z,-2.30
2022-12-18T11:41:16.230Z,-2.23
2022-12-18T11:44:00.394Z,-2.03
2022-12-18T11:46:48.070Z,-2.96
2022-12-18T11:49:19.777Z,-2.89
2022-12-18T11:51:56.483Z,-2.77
2022-12-18T11:54:22.958Z,-2.33
2022-12-18T11:56:49.319Z,-2.08
2022-12-18T11:59:43.734Z,-2.18
2022-12-18T12:02:44.666Z,-2.13
2022-12-18T12:05:21.325Z,-2.67
2022-12-18T12:08:10.465Z,-2.39
2022-12-18T12:11:07.066Z,-2.45
2022-12-18T12:13:44.691Z,-2.66
2022-12-18T12:16:26.909Z,-2.72
2022-12-18T12:19:07.517Z,-2.49
2022-12-18T12:21:41.784Z,-2.54
2022-12-18T12:24:35.657Z,-3.05
2022-12-18T12:27:34.807Z,-2.73
2022-12-18T12:30:12.244Z,-2.70
2022-12-18T12:33:06.710Z,-2.51
2022-12-18T12:35:49.276Z,-2.53
2022-12-18T12:38:22.466Z,-2.20
2022-12-18T12:41:03.396Z,-1.95
2022-12-18T12:43:52.028Z,-2.22
2022-12-18T12:46:22.390Z,-2.56
2022-12-18T12:48:55.258Z,-2.20
2022-12-18T12:51:26.708Z,-2.58
2022-12-18T12:53:55.431Z,-2.68
2022-12-18T12:56:22.853Z,-2.52
2022-12-18T12:59:01.975Z,-2.24
2022-12-18T13:01:40.844Z,-2.35
2022-12-18T13:04:13.424Z,-2.27
2022-12-18T13:06:51.413Z,-2.48
2022-12-18T13:09:18.533Z,-2.52
2022-12-18T13:12:06.414Z,-2.35
2022-12-18T13:14:36.916Z,-2.21
2022-12-18T13:17:22.080Z,-2.23
2022-12-18T13:19:53.776Z,-2.61
2022-12-18T13:22:29.697Z,-2.59
2022-12-18T13:24:56.324Z,-2.57
2022-12-18T13:28:10.112Z,-2.67
2022-12-18T13:30:36.775Z,-2.81
2022-12-18T13:33:28.103Z,-2.63
2022-12-18T13:36:02.397Z,-2.76
2022-12-18T13:38:32.184Z,-2.78
2022-12-18T13:41:23.803Z,-2.59
2022-12-18T13:43:58.694Z,-2.58
2022-12-18T13:46:30.919Z,-2.77
2022-12-18T13:49:06.669Z,-3.26
2022-12-18T13:51:36.161Z,-3.11
2022-12-18T13:54:28.311Z,-3.09
2022-12-18T13:56:55.310Z,-2.93
2022-12-18T13:59:27.406Z,-3.06
2022-12-18T14:02:00.328Z,-3.08
2022-12-18T14:04:33.117Z,-2.99
2022-12-18T14:07:34.993Z,-3.00
2022-12-18T14:10:45.529Z,-3.21
2022-12-18T14:13:07.749Z,-3.14
2022-12-18T14:15:47.352Z,-3.16
2022-12-18T14:18:21.257Z,-3.11
2022-12-18T14:20:53.013Z,-3.13
2022-12-18T14:23:31.954Z,-3.25
2022-12-18T14:26:05.128Z,-3.63
2022-12-18T14:28:32.845Z,-3.45
2022-12-18T14:30:59.627Z,-3.39
2022-12-18T14:33:29.670Z,-3.65
2022-12-18T14:36:05.657Z,-3.52
2022-12-18T14:38:40.210Z,-3.47
2022-12-18T14:41:18.110Z,-3.60
2022-12-18T14:43:46.727Z,-3.57
2022-12-18T14:46:28.816Z,-3.58
2022-12-18T14:48:56.105Z,-3.84
2022-12-18T14:51:25.920Z,-3.70
2022-12-18T14:53:58.844Z,-3.72
2022-12-18T14:56:31.206Z,-3.70
2022-12-18T14:59:00.942Z,-3.80
2022-12-18T15:01:34.233Z,-3.78
2022-12-18T15:04:02.761Z,-3.87
2022-12-18T15:06:38.377Z,-3.91
2022-12-18T15:09:23.073Z,-3.98
2022-12-18T15:11:49.900Z,-3.98
2022-12-18T15:14:43.410Z,-4.00
2022-12-18T15:17:22.641Z,-3.99
2022-12-18T15:19:54.281Z,-4.02
2022-12-18T15:22:30.367Z,-3.99
2022-12-18T15:24:58.872Z,-4.23
2022-12-18T15:27:30.556Z,-4.25
2022-12-18T15:30:24.742Z,-4.21
2022-12-18T15:32:52.723Z,-4.20
2022-12-18T15:35:25.990Z,-4.38
2022-12-18T15:37:53.239Z,-4.22
2022-12-18T15:40:23.199Z,-4.25
2022-12-18T15:43:12.977Z,-4.22
2022-12-18T15:45:41.741Z,-4.27
2022-12-18T15:48:41.395Z,-4.43
2022-12-18T15:51:32.612Z,-4.38
2022-12-18T15:54:01.874Z,-4.45
2022-12-18T15:56:47.365Z,-4.40
2022-12-18T15:59:19.877Z,-4.37
2022-12-18T16:01:48.460Z,-4.49
2022-12-18T16:04:17.138Z,-4.53
2022-12-18T16:07:13.230Z,-4.50
2022-12-18T16:09:30.643Z,-4.59
2022-12-18T16:11:57.605Z,-4.56
2022-12-18T16:14:29.386Z,-4.59
2022-12-18T16:17:03.745Z,-4.48
2022-12-18T16:19:31.215Z,-4.63
2022-12-18T16:21:59.132Z,-4.61
2022-12-18T16:24:31.030Z,-4.55
2022-12-18T16:27:00.390Z,-4.56
2022-12-18T16:29:28.826Z,-4.42
2022-12-18T16:32:00.215Z,-4.47
2022-12-18T16:34:34.865Z,-4.54
2022-12-18T16:37:08.400Z,-4.51
2022-12-18T16:39:35.861Z,-4.58
2022-12-18T16:42:05.796Z,-4.50
2022-12-18T16:44:34.011Z,-4.52
2022-12-18T16:47:03.449Z,-4.48
2022-12-18T16:49:30.720Z,-4.60
2022-12-18T16:51:57.586Z,-4.52
2022-12-18T16:54:25.029Z,-4.59
2022-12-18T16:56:52.774Z,-4.60
2022-12-18T16:59:19.433Z,-4.60
2022-12-18T17:01:47.825Z,-4.58
2022-12-18T17:04:15.026Z,-4.59
2022-12-18T17:06:44.299Z,-4.57
2022-12-18T17:09:16.338Z,-4.72
2022-12-18T17:11:43.692Z,-4.69
2022-12-18T17:14:14.433Z,-4.68
2022-12-18T17:16:41.813Z,-4.54
2022-12-18T17:19:13.750Z,-4.60
2022-12-18T17:21:45.055Z,-4.62
2022-12-18T17:24:11.786Z,-4.58
2022-12-18T17:26:38.281Z,-4.50
2022-12-18T17:29:06.165Z,-4.82
2022-12-18T17:31:34.236Z,-5.05
2022-12-18T17:34:04.580Z,-5.00
2022-12-18T17:36:32.213Z,-4.95
2022-12-18T17:39:01.515Z,-5.02
2022-12-18T17:41:29.483Z,-5.21
2022-12-18T17:44:02.287Z,-5.15
2022-12-18T17:46:30.901Z,-4.97
2022-12-18T17:49:02.715Z,-5.07
2022-12-18T17:51:29.978Z,-4.96
2022-12-18T17:53:57.016Z,-4.73
2022-12-18T17:56:24.801Z,-4.80
2022-12-18T17:58:52.001Z,-4.93
2022-12-18T18:01:22.201Z,-4.80
2022-12-18T18:03:51.963Z,-4.84
2022-12-18T18:06:21.003Z,-4.87
2022-12-18T18:08:48.092Z,-4.90
2022-12-18T18:11:37.010Z,-4.85
2022-12-18T18:14:11.773Z,-4.83
2022-12-18T18:16:42.120Z,-4.80
2022-12-18T18:19:11.498Z,-4.72
2022-12-18T18:21:40.902Z,-4.80
2022-12-18T18:24:09.630Z,-4.72
2022-12-18T18:26:37.721Z,-4.93
2022-12-18T18:29:06.677Z,-4.76
2022-12-18T18:31:40.933Z,-4.73
2022-12-18T18:34:08.621Z,-4.90
2022-12-18T18:36:35.315Z,-4.93
2022-12-18T18:39:02.172Z,-4.76
2022-12-18T18:41:30.347Z,-4.84
2022-12-18T18:43:58.306Z,-4.71
2022-12-18T18:46:25.713Z,-4.68
2022-12-18T18:48:55.179Z,-4.62
2022-12-18T18:51:23.002Z,-4.64
2022-12-18T18:53:51.700Z,-4.58
2022-12-18T18:59:08.547Z,-4.55
2022-12-18T19:01:35.106Z,-4.57
2022-12-18T19:04:05.463Z,-4.66
2022-12-18T19:06:32.084Z,-4.62
2022-12-18T19:09:02.599Z,-4.58
2022-12-18T19:11:47.647Z,-4.55
2022-12-18T19:14:15.844Z,-4.68
2022-12-18T19:16:43.637Z,-4.65
2022-12-18T19:19:11.506Z,-4.73
2022-12-18T19:21:38.280Z,-4.57
2022-12-18T19:24:05.985Z,-4.62
2022-12-18T19:26:32.933Z,-4.65
2022-12-18T19:29:05.709Z,-4.53
2022-12-18T19:31:35.932Z,-4.60
2022-12-18T19:34:03.113Z,-4.74
2022-12-18T19:36:31.137Z,-4.84
2022-12-18T19:38:59.843Z,-4.70
2022-12-18T19:41:31.200Z,-4.56
2022-12-18T19:44:00.381Z,-4.70
2022-12-18T19:46:31.376Z,-4.55
2022-12-18T19:49:00.177Z,-4.47
2022-12-18T19:51:29.154Z,-4.58
2022-12-18T19:54:00.411Z,-4.62
2022-12-18T19:56:31.057Z,-4.63
2022-12-18T19:58:58.201Z,-4.63
2022-12-18T20:01:26.371Z,-4.52
2022-12-18T20:03:54.411Z,-4.41
2022-12-18T20:06:50.834Z,-4.43
2022-12-18T20:09:18.602Z,-4.38
2022-12-18T20:11:46.240Z,-4.31
2022-12-18T20:14:14.717Z,-4.45
2022-12-18T20:16:46.365Z,-4.32
2022-12-18T20:19:14.168Z,-4.56
2022-12-18T20:21:41.637Z,-4.52
2022-12-18T20:24:11.046Z,-4.51
2022-12-18T20:26:38.482Z,-4.45
2022-12-18T20:29:05.016Z,-4.42
2022-12-18T20:31:32.133Z,-4.42
2022-12-18T20:34:01.564Z,-4.32
2022-12-18T20:36:30.711Z,-4.39
2022-12-18T20:39:00.463Z,-4.45
2022-12-18T20:41:33.530Z,-4.44
2022-12-18T20:44:05.079Z,-4.48
2022-12-18T20:46:34.116Z,-4.43
2022-12-18T20:49:00.749Z,-4.36
2022-12-18T20:51:29.075Z,-4.33
2022-12-18T20:53:55.574Z,-4.29
2022-12-18T20:56:23.518Z,-4.24
2022-12-18T20:58:53.964Z,-4.29
2022-12-18T21:01:24.127Z,-4.26
2022-12-18T21:03:51.381Z,-4.25
2022-12-18T21:06:20.412Z,-4.22
2022-12-18T21:08:48.201Z,-4.17
2022-12-18T21:11:39.626Z,-4.12
2022-12-18T21:14:10.524Z,-4.23
2022-12-18T21:16:40.923Z,-4.16
2022-12-18T21:19:08.787Z,-4.17
2022-12-18T21:21:38.812Z,-4.22
2022-12-18T21:24:07.788Z,-4.21
2022-12-18T21:26:34.708Z,-4.33
2022-12-18T21:29:04.051Z,-4.22
2022-12-18T21:31:34.189Z,-4.11
2022-12-18T21:34:02.372Z,-4.18
2022-12-18T21:36:30.089Z,-4.10
2022-12-18T21:39:08.680Z,-4.06
2022-12-18T21:42:19.375Z,-4.00
2022-12-18T21:44:47.620Z,-3.96
2022-12-18T21:47:22.714Z,-3.92
2022-12-18T21:49:52.564Z,-3.90
2022-12-18T21:52:22.176Z,-3.96
2022-12-18T21:55:01.786Z,-3.93
2022-12-18T21:57:33.176Z,-3.83
2022-12-18T21:59:59.666Z,-3.80
2022-12-18T22:02:26.888Z,-3.94
2022-12-18T22:04:53.634Z,-3.98
2022-12-18T22:07:20.525Z,-3.87
2022-12-18T22:09:49.451Z,-3.91
2022-12-18T22:12:35.076Z,-3.95
2022-12-18T22:15:04.516Z,-3.91
2022-12-18T22:17:31.002Z,-3.86
2022-12-18T22:19:57.670Z,-3.85
2022-12-18T22:22:24.690Z,-3.78
2022-12-18T22:24:51.418Z,-3.69
2022-12-18T22:27:18.055Z,-3.68
2022-12-18T22:30:03.453Z,-3.84
2022-12-18T22:32:35.043Z,-3.75
2022-12-18T22:35:09.210Z,-3.69
2022-12-18T22:37:39.532Z,-3.72
2022-12-18T22:40:07.235Z,-3.70
2022-12-18T22:42:34.390Z,-3.63
2022-12-18T22:45:00.824Z,-3.57
2022-12-18T22:47:30.034Z,-3.56
2022-12-18T22:49:57.346Z,-3.54
2022-12-18T22:52:24.864Z,-3.50
2022-12-18T22:54:53.554Z,-3.48
2022-12-18T22:57:21.696Z,-3.51
2022-12-18T22:59:49.455Z,-3.42
2022-12-18T23:02:17.628Z,-3.57
2022-12-18T23:04:44.876Z,-3.44
2022-12-18T23:07:11.881Z,-3.39
2022-12-18T23:09:39.342Z,-3.38
2022-12-18T23:12:06.242Z,-3.39
2022-12-18T23:14:32.724Z,-3.42
2022-12-18T23:16:59.154Z,-3.40
2022-12-18T23:19:26.258Z,-3.36
2022-12-18T23:21:54.844Z,-3.34
2022-12-18T23:24:25.353Z,-3.33
2022-12-18T23:26:51.998Z,-3.28
2022-12-18T23:29:18.432Z,-3.29
2022-12-18T23:31:45.511Z,-3.31
2022-12-18T23:34:14.063Z,-3.20
2022-12-18T23:36:45.537Z,-3.33
2022-12-18T23:39:27.550Z,-3.27
2022-12-18T23:41:59.953Z,-3.24
2022-12-18T23:44:26.977Z,-3.20
2022-12-18T23:46:53.721Z,-3.22
2022-12-18T23:49:20.399Z,-3.16
2022-12-18T23:51:46.912Z,-3.13
2022-12-18T23:54:13.438Z,-3.23
2022-12-18T23:56:40.142Z,-3.07
2022-12-18T23:59:06.804Z,-3.07
